createdAt,value
2018-05-18T00:02:17.791Z,100246
2018-05-18T00:04:44.704Z,100251
2018-05-18T00:07:10.866Z,100253
2018-05-18T00:09:37.072Z,100263
2018-05-18T00:12:04.023Z,100269
2018-05-18T00:14:30.236Z,100273
2018-05-18T00:16:56.455Z,100267
2018-05-18T00:19:22.684Z,100268
2018-05-18T00:21:48.880Z,100274
2018-05-18T00:24:15.064Z,100268
2018-05-18T00:26:41.236Z,100267
2018-05-18T00:29:07.423Z,100274
2018-05-18T00:31:34.443Z,100273
2018-05-18T00:34:00.667Z,100275
2018-05-18T00:36:26.903Z,100274
2018-05-18T00:38:53.111Z,100274
2018-05-18T00:41:19.299Z,100271
2018-05-18T00:43:45.484Z,100272
2018-05-18T00:46:11.679Z,100282
2018-05-18T00:48:37.851Z,100268
2018-05-18T00:51:04.052Z,100273
2018-05-18T00:53:30.287Z,100270
2018-05-18T00:55:57.223Z,100266
2018-05-18T00:58:23.447Z,100266
2018-05-18T01:00:49.656Z,100266
2018-05-18T01:03:15.840Z,100278
2018-05-18T01:05:42.039Z,100277
2018-05-18T01:08:08.291Z,100281
2018-05-18T01:10:34.462Z,100282
2018-05-18T01:13:00.639Z,100278
2018-05-18T01:15:26.831Z,100285
2018-05-18T01:17:53.007Z,100277
2018-05-18T01:20:19.203Z,100283
2018-05-18T01:22:45.419Z,100285
2018-05-18T01:25:11.656Z,100282
2018-05-18T01:27:37.823Z,100287
2018-05-18T01:30:04.045Z,100288
2018-05-18T01:32:30.236Z,100278
2018-05-18T01:34:56.426Z,100281
2018-05-18T01:37:22.591Z,100271
2018-05-18T01:39:48.813Z,100280
2018-05-18T01:42:15.003Z,100281
2018-05-18T01:44:41.923Z,100276
2018-05-18T01:47:08.106Z,100271
2018-05-18T01:49:34.322Z,100273
2018-05-18T01:52:00.506Z,100283
2018-05-18T01:54:26.693Z,100277
2018-05-18T01:56:52.907Z,100273
2018-05-18T01:59:19.119Z,100284
2018-05-18T02:01:47.347Z,100287
2018-05-18T02:04:14.270Z,100288
2018-05-18T02:06:40.463Z,100291
2018-05-18T02:09:07.378Z,100290
2018-05-18T02:11:33.566Z,100284
2018-05-18T02:13:59.770Z,100294
2018-05-18T02:16:26.719Z,100300
2018-05-18T02:18:53.683Z,100291
2018-05-18T02:21:19.841Z,100302
2018-05-18T02:23:45.981Z,100288
2018-05-18T02:26:12.192Z,100299
2018-05-18T02:28:39.162Z,100295
2018-05-18T02:31:05.334Z,100301
2018-05-18T02:33:31.564Z,100304
2018-05-18T02:35:57.806Z,100296
2018-05-18T02:38:24.018Z,100300
2018-05-18T02:40:50.248Z,100289
2018-05-18T02:43:16.428Z,100291
2018-05-18T02:45:42.634Z,100292
2018-05-18T02:48:08.802Z,100292
2018-05-18T02:50:34.966Z,100295
2018-05-18T02:53:01.166Z,100295
2018-05-18T02:55:28.118Z,100299
2018-05-18T02:57:55.693Z,100297
2018-05-18T03:00:21.848Z,100305
2018-05-18T03:02:48.044Z,100299
2018-05-18T03:05:14.214Z,100306
2018-05-18T03:07:40.386Z,100305
2018-05-18T03:10:07.294Z,100306
2018-05-18T03:12:33.474Z,100302
2018-05-18T03:14:59.641Z,100305
2018-05-18T03:17:25.846Z,100308
2018-05-18T03:19:51.996Z,100305
2018-05-18T03:22:18.155Z,100300
2018-05-18T03:24:44.314Z,100312
2018-05-18T03:27:11.037Z,100312
2018-05-18T03:29:37.973Z,100313
2018-05-18T03:32:04.178Z,100310
2018-05-18T03:34:30.368Z,100318
2018-05-18T03:36:56.518Z,100318
2018-05-18T03:39:22.694Z,100330
2018-05-18T03:41:49.617Z,100323
2018-05-18T03:44:15.821Z,100312
2018-05-18T03:46:41.995Z,100317
2018-05-18T03:49:08.897Z,100326
2018-05-18T03:51:36.368Z,100332
2018-05-18T03:54:02.564Z,100331
2018-05-18T03:56:28.725Z,100324
2018-05-18T03:58:54.943Z,100331
2018-05-18T04:01:39.624Z,100324
2018-05-18T04:04:24.354Z,100325
2018-05-18T04:07:09.228Z,100335
2018-05-18T04:09:35.437Z,100335
2018-05-18T04:12:01.639Z,100336
2018-05-18T04:14:27.802Z,100335
2018-05-18T04:16:53.992Z,100331
2018-05-18T04:19:20.150Z,100341
2018-05-18T04:21:47.070Z,100341
2018-05-18T04:24:13.260Z,100338
2018-05-18T04:26:39.436Z,100337
2018-05-18T04:29:05.610Z,100341
2018-05-18T04:31:31.750Z,100350
2018-05-18T04:33:57.906Z,100357
2018-05-18T04:36:24.067Z,100352
2018-05-18T04:38:50.254Z,100361
2018-05-18T04:41:17.170Z,100364
2018-05-18T04:43:43.351Z,100358
2018-05-18T04:46:09.572Z,100356
2018-05-18T04:48:35.742Z,100355
2018-05-18T04:51:01.959Z,100371
2018-05-18T04:53:28.095Z,100368
2018-05-18T04:55:54.298Z,100361
2018-05-18T04:58:21.248Z,100359
2018-05-18T05:00:47.471Z,100370
2018-05-18T05:03:13.634Z,100360
2018-05-18T05:05:39.826Z,100363
2018-05-18T05:08:05.986Z,100368
2018-05-18T05:10:32.156Z,100375
2018-05-18T05:12:58.324Z,100368
2018-05-18T05:15:24.542Z,100359
2018-05-18T05:17:50.763Z,100359
2018-05-18T05:20:16.901Z,100376
2018-05-18T05:22:43.138Z,100385
2018-05-18T05:25:09.373Z,100373
2018-05-18T05:27:35.579Z,100377
2018-05-18T05:30:01.828Z,100374
2018-05-18T05:32:27.993Z,100382
2018-05-18T05:34:54.965Z,100371
2018-05-18T05:37:21.117Z,100384
2018-05-18T05:39:47.328Z,100383
2018-05-18T05:42:13.546Z,100382
2018-05-18T05:44:39.736Z,100383
2018-05-18T05:47:05.938Z,100384
2018-05-18T05:49:32.159Z,100384
2018-05-18T05:51:58.369Z,100397
2018-05-18T05:54:24.527Z,100397
2018-05-18T05:56:50.715Z,100395
2018-05-18T05:59:16.879Z,100401
2018-05-18T06:01:43.091Z,100395
2018-05-18T06:04:09.318Z,100414
2018-05-18T06:06:35.512Z,100401
2018-05-18T06:09:01.665Z,100405
2018-05-18T06:11:27.848Z,100397
2018-05-18T06:13:54.751Z,100408
2018-05-18T06:16:20.932Z,100404
2018-05-18T06:18:47.944Z,100410
2018-05-18T06:21:14.104Z,100416
2018-05-18T06:23:41.050Z,100413
2018-05-18T06:26:07.979Z,100421
2018-05-18T06:28:34.155Z,100422
2018-05-18T06:31:00.343Z,100420
2018-05-18T06:33:27.276Z,100424
2018-05-18T06:35:53.479Z,100418
2018-05-18T06:38:19.655Z,100424
2018-05-18T06:40:45.839Z,100412
2018-05-18T06:43:12.034Z,100425
2018-05-18T06:45:38.245Z,100427
2018-05-18T06:48:04.423Z,100425
2018-05-18T06:50:30.626Z,100422
2018-05-18T06:52:56.838Z,100424
2018-05-18T06:55:23.011Z,100429
2018-05-18T06:57:49.239Z,100425
2018-05-18T07:00:15.439Z,100441
2018-05-18T07:02:41.643Z,100442
2018-05-18T07:05:07.842Z,100449
2018-05-18T07:07:34.791Z,100440
2018-05-18T07:10:01.747Z,100447
2018-05-18T07:12:28.732Z,100435
2018-05-18T07:14:54.899Z,100449
2018-05-18T07:17:21.088Z,100448
2018-05-18T07:19:47.304Z,100453
2018-05-18T07:22:13.509Z,100448
2018-05-18T07:24:39.662Z,100451
2018-05-18T07:27:05.858Z,100445
2018-05-18T07:29:32.741Z,100446
2018-05-18T07:31:58.917Z,100453
2018-05-18T07:34:25.809Z,100452
2018-05-18T07:36:51.984Z,100452
2018-05-18T07:39:18.192Z,100453
2018-05-18T07:41:44.350Z,100457
2018-05-18T07:44:11.291Z,100454
2018-05-18T07:46:38.216Z,100456
2018-05-18T07:49:04.386Z,100455
2018-05-18T07:51:30.564Z,100461
2018-05-18T07:53:56.747Z,100457
2018-05-18T07:56:22.960Z,100462
2018-05-18T07:58:49.169Z,100465
2018-05-18T08:01:15.360Z,100457
2018-05-18T08:03:41.549Z,100468
2018-05-18T08:06:08.447Z,100464
2018-05-18T08:08:34.668Z,100462
2018-05-18T08:11:00.898Z,100460
2018-05-18T08:13:27.108Z,100466
2018-05-18T08:15:53.274Z,100464
2018-05-18T08:18:19.455Z,100467
2018-05-18T08:20:45.637Z,100468
2018-05-18T08:23:11.807Z,100480
2018-05-18T08:25:38.008Z,100466
2018-05-18T08:28:04.215Z,100470
2018-05-18T08:30:49.178Z,100475
2018-05-18T08:33:15.338Z,100472
2018-05-18T08:35:42.275Z,100478
2018-05-18T08:38:08.519Z,100476
2018-05-18T08:40:35.684Z,100482
2018-05-18T08:43:01.825Z,100476
2018-05-18T08:45:28.002Z,100486
2018-05-18T08:47:54.177Z,100482
2018-05-18T08:50:20.410Z,100476
2018-05-18T08:52:47.316Z,100470
2018-05-18T08:55:14.283Z,100472
2018-05-18T08:57:40.514Z,100485
2018-05-18T09:00:06.723Z,100476
2018-05-18T09:02:32.927Z,100480
2018-05-18T09:04:59.097Z,100484
2018-05-18T09:07:25.281Z,100479
2018-05-18T09:09:51.484Z,100489
2018-05-18T09:12:17.666Z,100490
2018-05-18T09:14:43.865Z,100493
2018-05-18T09:17:16.098Z,100495
2018-05-18T09:19:42.294Z,100497
2018-05-18T09:22:08.463Z,100489
2018-05-18T09:24:34.687Z,100491
2018-05-18T09:27:00.917Z,100495
2018-05-18T09:29:27.127Z,100499
2018-05-18T09:31:53.379Z,100500
2018-05-18T09:34:19.683Z,100503
2018-05-18T09:36:45.830Z,100505
2018-05-18T09:39:12.018Z,100504
2018-05-18T09:41:38.977Z,100501
2018-05-18T09:44:05.149Z,100497
2018-05-18T09:46:31.370Z,100500
2018-05-18T09:48:57.547Z,100504
2018-05-18T09:51:24.372Z,100507
2018-05-18T09:53:51.341Z,100507
2018-05-18T09:56:17.518Z,100518
2018-05-18T09:58:43.717Z,100516
2018-05-18T10:01:09.913Z,100512
2018-05-18T10:03:36.871Z,100514
2018-05-18T10:06:03.070Z,100517
2018-05-18T10:08:30.014Z,100518
2018-05-18T10:10:56.190Z,100512
2018-05-18T10:13:22.371Z,100514
2018-05-18T10:15:48.598Z,100521
2018-05-18T10:18:14.805Z,100519
2018-05-18T10:20:41.016Z,100516
2018-05-18T10:23:07.227Z,100524
2018-05-18T10:25:33.448Z,100528
2018-05-18T10:27:59.614Z,100526
2018-05-18T10:30:29.638Z,100525
2018-05-18T10:32:56.383Z,100536
2018-05-18T10:35:22.619Z,100533
2018-05-18T10:37:48.818Z,100530
2018-05-18T10:40:14.981Z,100537
2018-05-18T10:42:41.154Z,100539
2018-05-18T10:45:07.326Z,100546
2018-05-18T10:47:33.520Z,100541
2018-05-18T10:49:59.698Z,100546
2018-05-18T10:52:26.619Z,100545
2018-05-18T10:54:52.842Z,100553
2018-05-18T10:57:19.017Z,100550
2018-05-18T10:59:45.194Z,100539
2018-05-18T11:02:11.400Z,100539
2018-05-18T11:04:37.567Z,100537
2018-05-18T11:07:03.769Z,100537
2018-05-18T11:09:29.933Z,100539
2018-05-18T11:11:56.130Z,100531
2018-05-18T11:14:22.342Z,100545
2018-05-18T11:16:48.502Z,100529
2018-05-18T11:19:14.663Z,100527
2018-05-18T11:21:41.576Z,100532
2018-05-18T11:24:07.759Z,100533
2018-05-18T11:26:33.943Z,100532
2018-05-18T11:29:00.119Z,100535
2018-05-18T11:31:26.314Z,100534
2018-05-18T11:33:53.228Z,100529
2018-05-18T11:36:19.431Z,100532
2018-05-18T11:38:45.618Z,100533
2018-05-18T11:41:11.828Z,100529
2018-05-18T11:43:38.751Z,100527
2018-05-18T11:46:04.949Z,100531
2018-05-18T11:48:31.110Z,100529
2018-05-18T11:50:57.303Z,100537
2018-05-18T11:53:23.465Z,100539
2018-05-18T11:55:49.643Z,100532
2018-05-18T11:58:15.868Z,100529
2018-05-18T12:00:42.067Z,100538
2018-05-18T12:03:09.010Z,100529
2018-05-18T12:05:35.207Z,100524
2018-05-18T12:08:01.420Z,100525
2018-05-18T12:10:27.590Z,100529
2018-05-18T12:12:53.784Z,100530
2018-05-18T12:15:20.601Z,100538
2018-05-18T12:17:46.770Z,100532
2018-05-18T12:20:12.980Z,100536
2018-05-18T12:22:39.169Z,100527
2018-05-18T12:25:05.375Z,100530
2018-05-18T12:27:32.280Z,100532
2018-05-18T12:29:58.451Z,100526
2018-05-18T12:32:25.460Z,100530
2018-05-18T12:34:51.676Z,100522
2018-05-18T12:37:17.842Z,100514
2018-05-18T12:39:44.047Z,100514
2018-05-18T12:42:10.236Z,100520
2018-05-18T12:44:36.497Z,100518
2018-05-18T12:47:02.609Z,100519
2018-05-18T12:49:28.782Z,100510
2018-05-18T12:51:54.954Z,100513
2018-05-18T12:54:21.102Z,100510
2018-05-18T12:56:47.246Z,100513
2018-05-18T12:59:13.426Z,100514
2018-05-18T13:01:39.612Z,100509
2018-05-18T13:04:05.864Z,100509
2018-05-18T13:06:32.800Z,100506
2018-05-18T13:08:58.986Z,100512
2018-05-18T13:11:25.215Z,100514
2018-05-18T13:13:51.421Z,100505
2018-05-18T13:16:17.608Z,100507
2018-05-18T13:18:43.790Z,100504
2018-05-18T13:21:09.971Z,100511
2018-05-18T13:23:36.896Z,100512
2018-05-18T13:26:03.063Z,100507
2018-05-18T13:28:29.226Z,100522
2018-05-18T13:30:55.456Z,100515
2018-05-18T13:33:21.687Z,100513
2018-05-18T13:35:47.913Z,100515
2018-05-18T13:38:14.147Z,100512
2018-05-18T13:40:40.310Z,100520
2018-05-18T13:43:06.519Z,100514
2018-05-18T13:45:32.730Z,100507
2018-05-18T13:47:58.913Z,100503
2018-05-18T13:50:25.830Z,100499
2018-05-18T13:52:51.989Z,100515
2018-05-18T13:55:18.166Z,100504
2018-05-18T13:57:44.371Z,100509
2018-05-18T14:00:10.548Z,100512
2018-05-18T14:02:37.458Z,100508
2018-05-18T14:05:04.183Z,100509
2018-05-18T14:07:30.407Z,100504
2018-05-18T14:09:56.612Z,100516
2018-05-18T14:12:22.811Z,100499
2018-05-18T14:14:49.050Z,100507
2018-05-18T14:17:15.971Z,100513
2018-05-18T14:19:42.137Z,100518
2018-05-18T14:22:08.360Z,100510
2018-05-18T14:24:35.246Z,100514
2018-05-18T14:27:01.462Z,100509
2018-05-18T14:29:27.677Z,100493
2018-05-18T14:31:53.982Z,100497
2018-05-18T14:34:20.036Z,100509
2018-05-18T14:36:46.225Z,100504
2018-05-18T14:39:12.399Z,100490
2018-05-18T14:41:38.577Z,100497
2018-05-18T14:44:04.778Z,100495
2018-05-18T14:46:30.968Z,100499
2018-05-18T14:48:57.149Z,100501
2018-05-18T14:51:23.349Z,100510
2018-05-18T14:53:50.459Z,100496
2018-05-18T14:56:17.366Z,100503
2018-05-18T14:58:43.549Z,100504
2018-05-18T15:01:09.650Z,100494
2018-05-18T15:03:35.746Z,100495
2018-05-18T15:06:01.865Z,100495
2018-05-18T15:08:27.953Z,100496
2018-05-18T15:10:54.144Z,100493
2018-05-18T15:13:20.915Z,100498
2018-05-18T15:15:47.753Z,100488
2018-05-18T15:18:13.853Z,100486
2018-05-18T15:20:39.975Z,100495
2018-05-18T15:23:06.069Z,100491
2018-05-18T15:25:32.178Z,100489
2018-05-18T15:27:58.277Z,100490
2018-05-18T15:30:25.120Z,100476
2018-05-18T15:32:51.962Z,100481
2018-05-18T15:35:18.802Z,100475
2018-05-18T15:37:44.912Z,100478
2018-05-18T15:40:11.015Z,100482
2018-05-18T15:42:37.174Z,100485
2018-05-18T15:45:03.234Z,100488
2018-05-18T15:47:29.337Z,100479
2018-05-18T15:49:56.165Z,100480
2018-05-18T15:52:22.257Z,100490
2018-05-18T15:54:48.344Z,100478
2018-05-18T15:57:15.184Z,100475
2018-05-18T15:59:41.275Z,100479
2018-05-18T16:02:07.361Z,100482
2018-05-18T16:04:33.441Z,100475
2018-05-18T16:06:59.529Z,100486
2018-05-18T16:09:25.609Z,100487
2018-05-18T16:11:51.713Z,100487
2018-05-18T16:14:17.797Z,100490
2018-05-18T16:16:43.894Z,100476
2018-05-18T16:19:09.973Z,100485
2018-05-18T16:21:36.058Z,100485
2018-05-18T16:24:02.133Z,100482
2018-05-18T16:26:28.218Z,100491
2018-05-18T16:28:54.313Z,100479
2018-05-18T16:31:20.388Z,100485
2018-05-18T16:33:46.472Z,100482
2018-05-18T16:36:12.558Z,100485
2018-05-18T16:38:38.645Z,100488
2018-05-18T16:41:04.726Z,100485
2018-05-18T16:43:31.559Z,100483
2018-05-18T16:45:57.633Z,100493
2018-05-18T16:48:23.733Z,100481
2018-05-18T16:50:50.553Z,100481
2018-05-18T16:53:16.640Z,100484
2018-05-18T16:55:42.797Z,100476
2018-05-18T16:58:08.886Z,100482
2018-05-18T17:00:35.657Z,100485
2018-05-18T17:03:01.747Z,100477
2018-05-18T17:05:27.834Z,100485
2018-05-18T17:07:54.673Z,100488
2018-05-18T17:10:20.758Z,100491
2018-05-18T17:12:46.940Z,100490
2018-05-18T17:15:12.943Z,100489
2018-05-18T17:17:39.039Z,100491
2018-05-18T17:20:05.117Z,100487
2018-05-18T17:22:31.933Z,100492
2018-05-18T17:24:59.505Z,100502
2018-05-18T17:27:26.154Z,100501
2018-05-18T17:29:52.978Z,100488
2018-05-18T17:32:19.058Z,100496
2018-05-18T17:34:45.150Z,100502
2018-05-18T17:37:11.973Z,100499
2018-05-18T17:39:38.071Z,100505
2018-05-18T17:42:04.147Z,100502
2018-05-18T17:44:30.985Z,100507
2018-05-18T17:46:57.808Z,100509
2018-05-18T17:49:24.654Z,100514
2018-05-18T17:51:50.722Z,100515
2018-05-18T17:54:16.868Z,100510
2018-05-18T17:56:42.919Z,100509
2018-05-18T17:59:09.028Z,100510
2018-05-18T18:01:35.148Z,100511
2018-05-18T18:04:01.226Z,100512
2018-05-18T18:06:28.048Z,100520
2018-05-18T18:08:54.134Z,100526
2018-05-18T18:11:20.219Z,100522
2018-05-18T18:13:47.059Z,100520
2018-05-18T18:16:13.883Z,100522
2018-05-18T18:18:40.758Z,100527
2018-05-18T18:21:06.850Z,100532
2018-05-18T18:23:32.928Z,100528
2018-05-18T18:25:59.013Z,100525
2018-05-18T18:28:25.156Z,100525
2018-05-18T18:30:51.214Z,100531
2018-05-18T18:33:17.302Z,100532
2018-05-18T18:35:43.407Z,100539
2018-05-18T18:38:09.485Z,100536
2018-05-18T18:40:35.569Z,100547
2018-05-18T18:43:02.398Z,100547
2018-05-18T18:45:28.493Z,100545
2018-05-18T18:47:54.582Z,100547
2018-05-18T18:50:20.665Z,100557
2018-05-18T18:52:46.742Z,100543
2018-05-18T18:55:12.838Z,100551
2018-05-18T18:57:39.682Z,100558
2018-05-18T19:00:06.514Z,100567
2018-05-18T19:02:32.611Z,100560
2018-05-18T19:04:58.697Z,100564
2018-05-18T19:07:24.787Z,100571
2018-05-18T19:09:50.872Z,100564
2018-05-18T19:12:16.944Z,100568
2018-05-18T19:14:43.056Z,100575
2018-05-18T19:17:09.135Z,100574
2018-05-18T19:19:35.227Z,100579
2018-05-18T19:22:02.071Z,100586
2018-05-18T19:24:28.890Z,100588
2018-05-18T19:26:54.975Z,100589
2018-05-18T19:29:21.057Z,100583
2018-05-18T19:31:47.897Z,100586
2018-05-18T19:34:13.977Z,100592
2018-05-18T19:36:40.074Z,100589
2018-05-18T19:39:06.157Z,100589
2018-05-18T19:41:32.246Z,100590
2018-05-18T19:43:58.334Z,100590
2018-05-18T19:46:25.165Z,100583
2018-05-18T19:48:52.129Z,100598
2018-05-18T19:51:18.974Z,100594
2018-05-18T19:53:45.798Z,100597
2018-05-18T19:56:11.881Z,100589
2018-05-18T19:58:37.976Z,100601
2018-05-18T20:01:04.821Z,100600
2018-05-18T20:03:30.969Z,100591
2018-05-18T20:05:58.341Z,100605
2018-05-18T20:08:24.437Z,100599
2018-05-18T20:10:50.538Z,100594
2018-05-18T20:13:17.388Z,100589
2018-05-18T20:15:44.326Z,100596
2018-05-18T20:18:10.367Z,100593
2018-05-18T20:20:36.457Z,100596
2018-05-18T20:23:02.558Z,100596
2018-05-18T20:25:28.649Z,100596
2018-05-18T20:27:54.742Z,100593
2018-05-18T20:30:20.837Z,100602
2018-05-18T20:32:46.940Z,100593
2018-05-18T20:35:13.032Z,100595
2018-05-18T20:37:39.873Z,100605
2018-05-18T20:40:06.722Z,100596
2018-05-18T20:42:33.581Z,100591
2018-05-18T20:44:59.682Z,100589
2018-05-18T20:47:26.538Z,100589
2018-05-18T20:49:53.374Z,100601
2018-05-18T20:52:20.227Z,100594
2018-05-18T20:54:46.340Z,100599
2018-05-18T20:57:13.188Z,100607
2018-05-18T20:59:40.014Z,100612
2018-05-18T21:02:06.115Z,100609
2018-05-18T21:04:32.210Z,100604
2018-05-18T21:06:58.309Z,100597
2018-05-18T21:09:24.413Z,100601
2018-05-18T21:11:50.515Z,100597
2018-05-18T21:14:16.584Z,100601
2018-05-18T21:16:43.422Z,100590
2018-05-18T21:19:10.260Z,100603
2018-05-18T21:21:36.345Z,100592
2018-05-18T21:24:02.435Z,100599
2018-05-18T21:26:28.527Z,100597
2018-05-18T21:28:54.609Z,100593
2018-05-18T21:31:20.686Z,100594
2018-05-18T21:33:46.777Z,100601
2018-05-18T21:36:12.861Z,100602
2018-05-18T21:38:39.685Z,100609
2018-05-18T21:41:06.513Z,100612
2018-05-18T21:43:32.593Z,100616
2018-05-18T21:45:58.682Z,100617
2018-05-18T21:48:25.510Z,100611
2018-05-18T21:50:51.585Z,100612
2018-05-18T21:53:17.669Z,100613
2018-05-18T21:55:44.491Z,100610
2018-05-18T21:58:10.596Z,100609
2018-05-18T22:00:36.691Z,100608
2018-05-18T22:03:02.792Z,100613
2018-05-18T22:05:29.642Z,100617
2018-05-18T22:07:56.489Z,100616
2018-05-18T22:10:23.324Z,100619
2018-05-18T22:12:50.192Z,100611
2018-05-18T22:15:16.293Z,100607
2018-05-18T22:17:43.134Z,100617
2018-05-18T22:20:09.980Z,100625
2018-05-18T22:22:36.808Z,100620
2018-05-18T22:25:02.907Z,100618
2018-05-18T22:27:28.996Z,100616
2018-05-18T22:29:55.090Z,100615
2018-05-18T22:32:21.925Z,100620
2018-05-18T22:34:48.030Z,100629
2018-05-18T22:37:14.129Z,100626
2018-05-18T22:39:42.218Z,100625
2018-05-18T22:42:09.063Z,100618
2018-05-18T22:44:35.173Z,100607
2018-05-18T22:47:01.287Z,100612
2018-05-18T22:49:27.385Z,100612
2018-05-18T22:51:54.214Z,100614
2018-05-18T22:54:20.318Z,100609
2018-05-18T22:56:46.419Z,100606
2018-05-18T22:59:12.522Z,100613
2018-05-18T23:01:38.610Z,100612
2018-05-18T23:04:04.702Z,100608
2018-05-18T23:06:30.793Z,100596
2018-05-18T23:08:57.622Z,100604
2018-05-18T23:11:24.458Z,100611
2018-05-18T23:13:50.547Z,100596
2018-05-18T23:16:16.649Z,100606
2018-05-18T23:18:42.746Z,100607
2018-05-18T23:21:09.592Z,100600
2018-05-18T23:23:36.410Z,100602
2018-05-18T23:26:02.502Z,100602
2018-05-18T23:28:28.577Z,100595
2018-05-18T23:30:55.407Z,100596
2018-05-18T23:33:21.485Z,100599
2018-05-18T23:35:47.564Z,100598
2018-05-18T23:38:13.643Z,100597
2018-05-18T23:40:39.730Z,100605
2018-05-18T23:43:06.555Z,100604
2018-05-18T23:45:32.650Z,100594
2018-05-18T23:47:58.729Z,100595
2018-05-18T23:50:25.552Z,100589
2018-05-18T23:52:51.633Z,100589
2018-05-18T23:55:17.726Z,100583
2018-05-18T23:57:43.833Z,100594
